THY2471 LTDB-LTFM
Flight info
| Callsign | THY2471 |
|---|---|
| Flight time | 1h 14m |
| Altitude | 36000 |
| Route | KEMER UW75 BAG UL605 YAVRU UL615 ERSEN |
| Aircraft | A320/M-SDE3FGHIRWY/LB1 |
Departure
| Time | 2026-05-07 08:18 |
|---|---|
| Airport | Çukurova International Airport (LTDB) |
Arrival
| Time | 2026-05-07 09:32 |
|---|---|
| Airport | İstanbul Airport (LTFM) |
| Time | Latitude | Longitude | Altitude | Speed | Heading |
|---|---|---|---|---|---|
| 2026-05-07 08:00 | 36.89746 | 35.06691 | 44 ft | 0 kts | 302° |
| 2026-05-07 08:07 | 36.89742 | 35.06700 | 44 ft | 2 kts | 302° |
| 2026-05-07 08:07 | 36.89734 | 35.06715 | 44 ft | 2 kts | 302° |
| 2026-05-07 08:07 | 36.89726 | 35.06731 | 44 ft | 2 kts | 302° |
| 2026-05-07 08:08 | 36.89718 | 35.06747 | 44 ft | 1 kts | 302° |
| 2026-05-07 08:08 | 36.89713 | 35.06757 | 44 ft | 1 kts | 283° |
| 2026-05-07 08:08 | 36.89716 | 35.06775 | 44 ft | 2 kts | 234° |
| 2026-05-07 08:08 | 36.89721 | 35.06782 | 44 ft | 1 kts | 208° |
| 2026-05-07 08:09 | 36.89727 | 35.06786 | 44 ft | 0 kts | 210° |
| 2026-05-07 08:11 | 36.89726 | 35.06785 | 44 ft | 0 kts | 210° |
| 2026-05-07 08:11 | 36.89716 | 35.06778 | 44 ft | 2 kts | 211° |
| 2026-05-07 08:11 | 36.89698 | 35.06763 | 44 ft | 4 kts | 212° |
| 2026-05-07 08:11 | 36.89663 | 35.06736 | 44 ft | 7 kts | 212° |
| 2026-05-07 08:12 | 36.89616 | 35.06699 | 44 ft | 8 kts | 211° |
| 2026-05-07 08:12 | 36.89558 | 35.06664 | 44 ft | 9 kts | 180° |
| 2026-05-07 08:12 | 36.89511 | 35.06728 | 44 ft | 11 kts | 120° |
| 2026-05-07 08:12 | 36.89470 | 35.06814 | 44 ft | 11 kts | 121° |
| 2026-05-07 08:13 | 36.89425 | 35.06905 | 44 ft | 12 kts | 121° |
| 2026-05-07 08:13 | 36.89368 | 35.06989 | 44 ft | 12 kts | 168° |
| 2026-05-07 08:13 | 36.89286 | 35.06941 | 44 ft | 13 kts | 211° |
| 2026-05-07 08:13 | 36.89201 | 35.06877 | 44 ft | 14 kts | 211° |
| 2026-05-07 08:14 | 36.89114 | 35.06811 | 44 ft | 15 kts | 211° |
| 2026-05-07 08:14 | 36.89022 | 35.06741 | 44 ft | 15 kts | 211° |
| 2026-05-07 08:14 | 36.88928 | 35.06669 | 44 ft | 16 kts | 212° |
| 2026-05-07 08:14 | 36.88831 | 35.06595 | 44 ft | 16 kts | 211° |
| 2026-05-07 08:15 | 36.88733 | 35.06520 | 44 ft | 16 kts | 212° |
| 2026-05-07 08:15 | 36.88632 | 35.06443 | 44 ft | 16 kts | 211° |
| 2026-05-07 08:15 | 36.88530 | 35.06366 | 44 ft | 17 kts | 212° |
| 2026-05-07 08:15 | 36.88426 | 35.06288 | 44 ft | 17 kts | 210° |
| 2026-05-07 08:16 | 36.88324 | 35.06207 | 44 ft | 17 kts | 212° |
| 2026-05-07 08:16 | 36.88218 | 35.06128 | 44 ft | 17 kts | 211° |
| 2026-05-07 08:16 | 36.88113 | 35.06048 | 44 ft | 17 kts | 211° |
| 2026-05-07 08:16 | 36.88008 | 35.05968 | 44 ft | 14 kts | 212° |
| 2026-05-07 08:17 | 36.87937 | 35.05947 | 44 ft | 11 kts | 149° |
| 2026-05-07 08:17 | 36.87890 | 35.06032 | 44 ft | 12 kts | 122° |
| 2026-05-07 08:17 | 36.87853 | 35.06110 | 44 ft | 4 kts | 112° |
| 2026-05-07 08:17 | 36.87873 | 35.06146 | 44 ft | 6 kts | 31° |
| 2026-05-07 08:18 | 36.87957 | 35.06209 | 44 ft | 39 kts | 31° |
| 2026-05-07 08:18 | 36.88417 | 35.06558 | 44 ft | 112 kts | 31° |
| 2026-05-07 08:18 | 36.89269 | 35.07209 | 117 ft | 162 kts | 32° |
| 2026-05-07 08:18 | 36.90230 | 35.07937 | 724 ft | 164 kts | 31° |
| 2026-05-07 08:19 | 36.91207 | 35.08654 | 1424 ft | 167 kts | 30° |
| 2026-05-07 08:19 | 36.92204 | 35.09405 | 2062 ft | 172 kts | 31° |
| 2026-05-07 08:19 | 36.93270 | 35.10219 | 2531 ft | 186 kts | 31° |
| 2026-05-07 08:19 | 36.94414 | 35.11091 | 2987 ft | 203 kts | 31° |
| 2026-05-07 08:20 | 36.95674 | 35.12049 | 3483 ft | 218 kts | 32° |
| 2026-05-07 08:20 | 36.97042 | 35.12985 | 4142 ft | 228 kts | 17° |
| 2026-05-07 08:20 | 36.98584 | 35.13043 | 5066 ft | 227 kts | 345° |
| 2026-05-07 08:20 | 37.00046 | 35.12223 | 5641 ft | 242 kts | 334° |
| 2026-05-07 08:21 | 37.01593 | 35.11186 | 6164 ft | 261 kts | 333° |
| 2026-05-07 08:21 | 37.03232 | 35.10086 | 6822 ft | 273 kts | 333° |
| 2026-05-07 08:21 | 37.04933 | 35.08954 | 7722 ft | 277 kts | 333° |
| 2026-05-07 08:21 | 37.06613 | 35.07845 | 8630 ft | 279 kts | 333° |
| 2026-05-07 08:22 | 37.08331 | 35.06715 | 9528 ft | 282 kts | 333° |
| 2026-05-07 08:22 | 37.10080 | 35.05568 | 10388 ft | 286 kts | 333° |
| 2026-05-07 08:22 | 37.11878 | 35.04391 | 10944 ft | 301 kts | 333° |
| 2026-05-07 08:22 | 37.13800 | 35.03132 | 11386 ft | 319 kts | 333° |
| 2026-05-07 08:23 | 37.15813 | 35.01812 | 11780 ft | 337 kts | 333° |
| 2026-05-07 08:23 | 37.17961 | 35.00402 | 12188 ft | 353 kts | 333° |
| 2026-05-07 08:23 | 37.20159 | 34.98959 | 12891 ft | 359 kts | 333° |
| 2026-05-07 08:23 | 37.22340 | 34.97526 | 13693 ft | 361 kts | 332° |
| 2026-05-07 08:24 | 37.24583 | 34.96052 | 14518 ft | 363 kts | 332° |
| 2026-05-07 08:24 | 37.26814 | 34.94586 | 15287 ft | 365 kts | 332° |
| 2026-05-07 08:24 | 37.29077 | 34.93096 | 16027 ft | 368 kts | 332° |
| 2026-05-07 08:24 | 37.31354 | 34.91598 | 16749 ft | 371 kts | 332° |
| 2026-05-07 08:25 | 37.33642 | 34.90093 | 17514 ft | 372 kts | 332° |
| 2026-05-07 08:25 | 37.35930 | 34.88586 | 18282 ft | 372 kts | 332° |
| 2026-05-07 08:25 | 37.38209 | 34.87084 | 18980 ft | 374 kts | 332° |
| 2026-05-07 08:25 | 37.40527 | 34.85553 | 19644 ft | 376 kts | 332° |
| 2026-05-07 08:26 | 37.45155 | 34.82496 | 20970 ft | 380 kts | 332° |
| 2026-05-07 08:26 | 37.47493 | 34.80949 | 21583 ft | 382 kts | 331° |
| 2026-05-07 08:26 | 37.49849 | 34.79387 | 22184 ft | 384 kts | 332° |
| 2026-05-07 08:27 | 37.52206 | 34.77825 | 22803 ft | 385 kts | 332° |
| 2026-05-07 08:27 | 37.54586 | 34.76248 | 23380 ft | 387 kts | 331° |
| 2026-05-07 08:27 | 37.56969 | 34.74668 | 23940 ft | 389 kts | 331° |
| 2026-05-07 08:27 | 37.59369 | 34.73067 | 24458 ft | 392 kts | 330° |
| 2026-05-07 08:28 | 37.61736 | 34.71355 | 24970 ft | 394 kts | 329° |
| 2026-05-07 08:28 | 37.64097 | 34.69578 | 25474 ft | 395 kts | 328° |
| 2026-05-07 08:28 | 37.66447 | 34.67798 | 25926 ft | 398 kts | 328° |
| 2026-05-07 08:28 | 37.68852 | 34.65973 | 26389 ft | 400 kts | 328° |
| 2026-05-07 08:29 | 37.71231 | 34.64167 | 26832 ft | 402 kts | 328° |
| 2026-05-07 08:29 | 37.73631 | 34.62344 | 27256 ft | 403 kts | 328° |
| 2026-05-07 08:29 | 37.76040 | 34.60515 | 27656 ft | 405 kts | 328° |
| 2026-05-07 08:29 | 37.78448 | 34.58683 | 28037 ft | 407 kts | 328° |
| 2026-05-07 08:30 | 37.80905 | 34.56812 | 28411 ft | 409 kts | 328° |
| 2026-05-07 08:30 | 37.83334 | 34.54961 | 28777 ft | 411 kts | 328° |
| 2026-05-07 08:30 | 37.85813 | 34.53072 | 29127 ft | 412 kts | 328° |
| 2026-05-07 08:30 | 37.88250 | 34.51212 | 29501 ft | 412 kts | 328° |
| 2026-05-07 08:31 | 37.90746 | 34.49313 | 29984 ft | 410 kts | 328° |
| 2026-05-07 08:31 | 37.93196 | 34.47479 | 30454 ft | 408 kts | 329° |
| 2026-05-07 08:31 | 37.95660 | 34.45644 | 30832 ft | 406 kts | 328° |
| 2026-05-07 08:31 | 37.98087 | 34.43832 | 31133 ft | 407 kts | 329° |
| 2026-05-07 08:32 | 38.00551 | 34.41988 | 31445 ft | 407 kts | 329° |
| 2026-05-07 08:32 | 38.02994 | 34.40159 | 31771 ft | 406 kts | 329° |
| 2026-05-07 08:32 | 38.05421 | 34.38339 | 32070 ft | 406 kts | 328° |
| 2026-05-07 08:32 | 38.07861 | 34.36509 | 32348 ft | 406 kts | 328° |
| 2026-05-07 08:33 | 38.10328 | 34.34655 | 32637 ft | 407 kts | 328° |
| 2026-05-07 08:33 | 38.12750 | 34.32832 | 32923 ft | 407 kts | 328° |
| 2026-05-07 08:33 | 38.15193 | 34.30993 | 33224 ft | 407 kts | 328° |
| 2026-05-07 08:33 | 38.17641 | 34.29149 | 33526 ft | 406 kts | 328° |
| 2026-05-07 08:34 | 38.20055 | 34.27330 | 33792 ft | 406 kts | 328° |
| 2026-05-07 08:34 | 38.22497 | 34.25487 | 34043 ft | 407 kts | 328° |
| 2026-05-07 08:34 | 38.24973 | 34.23617 | 34302 ft | 406 kts | 328° |
| 2026-05-07 08:34 | 38.27397 | 34.21786 | 34544 ft | 406 kts | 328° |
| 2026-05-07 08:35 | 38.29843 | 34.19936 | 34743 ft | 407 kts | 328° |
| 2026-05-07 08:35 | 38.32275 | 34.18095 | 34931 ft | 408 kts | 328° |
| 2026-05-07 08:35 | 38.34715 | 34.16246 | 35082 ft | 410 kts | 328° |
| 2026-05-07 08:35 | 38.37168 | 34.14385 | 35208 ft | 412 kts | 328° |
| 2026-05-07 08:36 | 38.39637 | 34.12512 | 35359 ft | 413 kts | 328° |
| 2026-05-07 08:36 | 38.42109 | 34.10633 | 35524 ft | 414 kts | 328° |
| 2026-05-07 08:36 | 38.44598 | 34.08741 | 35657 ft | 414 kts | 328° |
| 2026-05-07 08:36 | 38.47101 | 34.06836 | 35792 ft | 415 kts | 328° |
| 2026-05-07 08:37 | 38.49589 | 34.04941 | 35921 ft | 417 kts | 328° |
| 2026-05-07 08:37 | 38.52084 | 34.03038 | 36070 ft | 417 kts | 328° |
| 2026-05-07 08:37 | 38.57070 | 33.99217 | 36157 ft | 419 kts | 328° |
| 2026-05-07 08:38 | 38.62077 | 33.95360 | 36167 ft | 419 kts | 328° |
| 2026-05-07 08:38 | 38.67079 | 33.91503 | 36176 ft | 419 kts | 328° |
| 2026-05-07 08:39 | 38.72084 | 33.87635 | 36161 ft | 419 kts | 328° |
| 2026-05-07 08:39 | 38.77082 | 33.83766 | 36173 ft | 419 kts | 328° |
| 2026-05-07 08:40 | 38.82064 | 33.79906 | 36186 ft | 418 kts | 328° |
| 2026-05-07 08:40 | 38.87061 | 33.76026 | 36191 ft | 417 kts | 328° |
| 2026-05-07 08:41 | 38.91997 | 33.72186 | 36173 ft | 418 kts | 328° |
| 2026-05-07 08:41 | 38.96962 | 33.68315 | 36177 ft | 417 kts | 328° |
| 2026-05-07 08:42 | 39.01919 | 33.64447 | 36184 ft | 417 kts | 328° |
| 2026-05-07 08:42 | 39.06868 | 33.60580 | 36189 ft | 417 kts | 328° |
| 2026-05-07 08:43 | 39.11804 | 33.56714 | 36173 ft | 417 kts | 328° |
| 2026-05-07 08:43 | 39.16770 | 33.52817 | 36171 ft | 417 kts | 328° |
| 2026-05-07 08:44 | 39.21741 | 33.48911 | 36170 ft | 416 kts | 328° |
| 2026-05-07 08:44 | 39.26701 | 33.45079 | 36181 ft | 415 kts | 329° |
| 2026-05-07 08:45 | 39.31697 | 33.41244 | 36172 ft | 416 kts | 329° |
| 2026-05-07 08:45 | 39.36676 | 33.37409 | 36178 ft | 416 kts | 329° |
| 2026-05-07 08:46 | 39.41777 | 33.33807 | 36181 ft | 417 kts | 331° |
| 2026-05-07 08:46 | 39.46803 | 33.30031 | 36172 ft | 416 kts | 328° |
| 2026-05-07 08:47 | 39.51754 | 33.26046 | 36191 ft | 416 kts | 328° |
| 2026-05-07 08:47 | 39.56694 | 33.22053 | 36174 ft | 416 kts | 328° |
| 2026-05-07 08:48 | 39.61606 | 33.18077 | 36183 ft | 416 kts | 328° |
| 2026-05-07 08:48 | 39.66515 | 33.14098 | 36188 ft | 416 kts | 328° |
| 2026-05-07 08:49 | 39.71410 | 33.10122 | 36182 ft | 416 kts | 328° |
| 2026-05-07 08:49 | 39.76344 | 33.06106 | 36188 ft | 415 kts | 328° |
| 2026-05-07 08:50 | 39.81222 | 33.02132 | 36178 ft | 415 kts | 328° |
| 2026-05-07 08:50 | 39.86123 | 32.98132 | 36190 ft | 415 kts | 328° |
| 2026-05-07 08:51 | 39.91032 | 32.94116 | 36186 ft | 416 kts | 328° |
| 2026-05-07 08:51 | 39.95946 | 32.90089 | 36191 ft | 416 kts | 328° |
| 2026-05-07 08:52 | 40.00788 | 32.85988 | 36190 ft | 416 kts | 324° |
| 2026-05-07 08:52 | 40.05281 | 32.81265 | 36188 ft | 416 kts | 319° |
| 2026-05-07 08:53 | 40.09356 | 32.75846 | 36181 ft | 417 kts | 313° |
| 2026-05-07 08:53 | 40.12921 | 32.69848 | 36174 ft | 419 kts | 307° |
| 2026-05-07 08:54 | 40.16256 | 32.63591 | 36174 ft | 419 kts | 307° |
| 2026-05-07 08:54 | 40.19591 | 32.57290 | 36166 ft | 419 kts | 307° |
| 2026-05-07 08:55 | 40.22918 | 32.50996 | 36164 ft | 419 kts | 307° |
| 2026-05-07 08:55 | 40.26227 | 32.44723 | 36165 ft | 419 kts | 307° |
| 2026-05-07 08:56 | 40.29543 | 32.38425 | 36161 ft | 420 kts | 307° |
| 2026-05-07 08:56 | 40.32854 | 32.32120 | 36161 ft | 419 kts | 307° |
| 2026-05-07 08:57 | 40.36177 | 32.25785 | 36159 ft | 419 kts | 307° |
| 2026-05-07 08:57 | 40.39480 | 32.19476 | 36156 ft | 419 kts | 306° |
| 2026-05-07 08:58 | 40.42789 | 32.13134 | 36152 ft | 418 kts | 306° |
| 2026-05-07 08:58 | 40.46056 | 32.06846 | 36149 ft | 418 kts | 307° |
| 2026-05-07 08:59 | 40.49328 | 32.00529 | 36144 ft | 418 kts | 306° |
| 2026-05-07 08:59 | 40.52600 | 31.94200 | 36142 ft | 418 kts | 307° |
| 2026-05-07 09:00 | 40.55746 | 31.87796 | 36144 ft | 419 kts | 303° |
| 2026-05-07 09:00 | 40.58434 | 31.80946 | 36156 ft | 421 kts | 297° |
| 2026-05-07 09:01 | 40.60585 | 31.73703 | 36152 ft | 423 kts | 292° |
| 2026-05-07 09:01 | 40.62412 | 31.66369 | 36158 ft | 423 kts | 292° |
| 2026-05-07 09:02 | 40.64225 | 31.59022 | 36154 ft | 422 kts | 292° |
| 2026-05-07 09:02 | 40.66042 | 31.51642 | 36155 ft | 423 kts | 292° |
| 2026-05-07 09:03 | 40.67847 | 31.44281 | 36001 ft | 423 kts | 292° |
| 2026-05-07 09:03 | 40.68750 | 31.40589 | 35784 ft | 420 kts | 292° |
| 2026-05-07 09:03 | 40.69634 | 31.36963 | 35573 ft | 417 kts | 292° |
| 2026-05-07 09:04 | 40.70520 | 31.33330 | 35347 ft | 414 kts | 292° |
| 2026-05-07 09:04 | 40.71395 | 31.29740 | 35131 ft | 411 kts | 292° |
| 2026-05-07 09:04 | 40.72272 | 31.26125 | 34912 ft | 410 kts | 292° |
| 2026-05-07 09:04 | 40.73141 | 31.22555 | 34682 ft | 410 kts | 292° |
| 2026-05-07 09:05 | 40.74003 | 31.19008 | 34465 ft | 408 kts | 292° |
| 2026-05-07 09:05 | 40.74871 | 31.15432 | 34203 ft | 407 kts | 292° |
| 2026-05-07 09:05 | 40.75732 | 31.11868 | 33938 ft | 408 kts | 293° |
| 2026-05-07 09:05 | 40.76595 | 31.08304 | 33667 ft | 409 kts | 293° |
| 2026-05-07 09:06 | 40.77461 | 31.04719 | 33252 ft | 411 kts | 292° |
| 2026-05-07 09:06 | 40.78326 | 31.01135 | 32650 ft | 412 kts | 292° |
| 2026-05-07 09:06 | 40.79185 | 30.97559 | 31932 ft | 413 kts | 292° |
| 2026-05-07 09:06 | 40.80058 | 30.93926 | 31153 ft | 413 kts | 292° |
| 2026-05-07 09:07 | 40.80925 | 30.90305 | 30340 ft | 414 kts | 292° |
| 2026-05-07 09:07 | 40.81781 | 30.86716 | 29515 ft | 415 kts | 292° |
| 2026-05-07 09:07 | 40.82648 | 30.83086 | 28665 ft | 416 kts | 292° |
| 2026-05-07 09:07 | 40.83503 | 30.79488 | 28105 ft | 414 kts | 291° |
| 2026-05-07 09:08 | 40.84362 | 30.75870 | 27695 ft | 411 kts | 292° |
| 2026-05-07 09:08 | 40.85218 | 30.72268 | 27488 ft | 412 kts | 292° |
| 2026-05-07 09:08 | 40.85989 | 30.68706 | 27130 ft | 404 kts | 289° |
| 2026-05-07 09:08 | 40.86601 | 30.65104 | 26715 ft | 397 kts | 285° |
| 2026-05-07 09:09 | 40.86951 | 30.61544 | 26322 ft | 393 kts | 279° |
| 2026-05-07 09:09 | 40.87069 | 30.57957 | 26032 ft | 386 kts | 277° |
| 2026-05-07 09:09 | 40.87149 | 30.54450 | 25741 ft | 385 kts | 277° |
| 2026-05-07 09:09 | 40.87233 | 30.50926 | 25404 ft | 383 kts | 277° |
| 2026-05-07 09:10 | 40.87326 | 30.47418 | 25036 ft | 381 kts | 277° |
| 2026-05-07 09:10 | 40.87427 | 30.43917 | 24656 ft | 379 kts | 278° |
| 2026-05-07 09:10 | 40.87529 | 30.40464 | 24272 ft | 378 kts | 278° |
| 2026-05-07 09:10 | 40.87634 | 30.37026 | 23839 ft | 376 kts | 278° |
| 2026-05-07 09:11 | 40.87741 | 30.33560 | 23363 ft | 374 kts | 277° |
| 2026-05-07 09:11 | 40.87844 | 30.30183 | 22884 ft | 371 kts | 277° |
| 2026-05-07 09:11 | 40.87950 | 30.26760 | 22403 ft | 368 kts | 277° |
| 2026-05-07 09:11 | 40.88053 | 30.23414 | 21892 ft | 366 kts | 277° |
| 2026-05-07 09:12 | 40.88155 | 30.20073 | 21374 ft | 365 kts | 277° |
| 2026-05-07 09:12 | 40.88256 | 30.16714 | 20829 ft | 364 kts | 277° |
| 2026-05-07 09:12 | 40.88354 | 30.13433 | 20345 ft | 362 kts | 277° |
| 2026-05-07 09:12 | 40.88451 | 30.10130 | 19828 ft | 360 kts | 277° |
| 2026-05-07 09:13 | 40.88547 | 30.06811 | 19292 ft | 359 kts | 277° |
| 2026-05-07 09:13 | 40.88643 | 30.03495 | 18754 ft | 358 kts | 277° |
| 2026-05-07 09:13 | 40.88737 | 30.00258 | 18207 ft | 358 kts | 277° |
| 2026-05-07 09:13 | 40.88831 | 29.96953 | 17663 ft | 357 kts | 277° |
| 2026-05-07 09:14 | 40.88923 | 29.93712 | 17175 ft | 355 kts | 277° |
| 2026-05-07 09:14 | 40.89015 | 29.90429 | 16674 ft | 353 kts | 277° |
| 2026-05-07 09:14 | 40.89104 | 29.87209 | 16182 ft | 351 kts | 276° |
| 2026-05-07 09:14 | 40.89191 | 29.84031 | 15702 ft | 349 kts | 276° |
| 2026-05-07 09:15 | 40.89277 | 29.80849 | 15243 ft | 346 kts | 276° |
| 2026-05-07 09:15 | 40.89362 | 29.77681 | 14772 ft | 343 kts | 276° |
| 2026-05-07 09:15 | 40.89445 | 29.74526 | 14321 ft | 340 kts | 276° |
| 2026-05-07 09:15 | 40.89526 | 29.71442 | 13903 ft | 338 kts | 276° |
| 2026-05-07 09:16 | 40.89607 | 29.68351 | 13425 ft | 336 kts | 276° |
| 2026-05-07 09:16 | 40.89687 | 29.65275 | 12959 ft | 335 kts | 276° |
| 2026-05-07 09:16 | 40.89765 | 29.62189 | 12512 ft | 332 kts | 275° |
| 2026-05-07 09:16 | 40.89840 | 29.59183 | 12095 ft | 329 kts | 275° |
| 2026-05-07 09:17 | 40.89914 | 29.56183 | 11669 ft | 327 kts | 275° |
| 2026-05-07 09:17 | 40.89987 | 29.53186 | 11233 ft | 324 kts | 275° |
| 2026-05-07 09:17 | 40.90058 | 29.50249 | 10993 ft | 321 kts | 275° |
| 2026-05-07 09:17 | 40.90125 | 29.47345 | 10976 ft | 305 kts | 275° |
| 2026-05-07 09:18 | 40.90186 | 29.44627 | 10984 ft | 290 kts | 276° |
| 2026-05-07 09:18 | 40.90247 | 29.42002 | 10976 ft | 282 kts | 276° |
| 2026-05-07 09:18 | 40.90306 | 29.39461 | 10970 ft | 267 kts | 276° |
| 2026-05-07 09:18 | 40.90362 | 29.37037 | 10980 ft | 267 kts | 276° |
| 2026-05-07 09:19 | 40.90419 | 29.34617 | 10977 ft | 258 kts | 275° |
| 2026-05-07 09:19 | 40.90470 | 29.32312 | 10933 ft | 245 kts | 275° |
| 2026-05-07 09:19 | 40.90521 | 29.30088 | 10690 ft | 241 kts | 276° |
| 2026-05-07 09:19 | 40.90572 | 29.27889 | 10314 ft | 240 kts | 275° |
| 2026-05-07 09:20 | 40.90622 | 29.25705 | 9960 ft | 237 kts | 275° |
| 2026-05-07 09:20 | 40.90671 | 29.23532 | 9619 ft | 235 kts | 275° |
| 2026-05-07 09:20 | 40.90719 | 29.21383 | 9148 ft | 240 kts | 275° |
| 2026-05-07 09:20 | 40.90773 | 29.19139 | 8421 ft | 250 kts | 275° |
| 2026-05-07 09:21 | 40.90825 | 29.16839 | 7798 ft | 251 kts | 274° |
| 2026-05-07 09:21 | 40.90871 | 29.14575 | 7276 ft | 246 kts | 274° |
| 2026-05-07 09:21 | 40.90915 | 29.12367 | 6825 ft | 240 kts | 274° |
| 2026-05-07 09:21 | 40.90959 | 29.10169 | 6340 ft | 235 kts | 274° |
| 2026-05-07 09:22 | 40.91003 | 29.08071 | 6001 ft | 229 kts | 274° |
| 2026-05-07 09:22 | 40.91045 | 29.06009 | 5791 ft | 219 kts | 273° |
| 2026-05-07 09:22 | 40.91085 | 29.04004 | 5713 ft | 218 kts | 273° |
| 2026-05-07 09:22 | 40.91125 | 29.01979 | 5633 ft | 220 kts | 274° |
| 2026-05-07 09:23 | 40.91233 | 28.99945 | 5506 ft | 228 kts | 277° |
| 2026-05-07 09:23 | 40.91414 | 28.97834 | 5190 ft | 228 kts | 278° |
| 2026-05-07 09:23 | 40.91598 | 28.95766 | 4895 ft | 226 kts | 277° |
| 2026-05-07 09:23 | 40.91777 | 28.93739 | 4617 ft | 224 kts | 277° |
| 2026-05-07 09:24 | 40.91958 | 28.91689 | 4340 ft | 224 kts | 277° |
| 2026-05-07 09:24 | 40.92137 | 28.89646 | 4075 ft | 223 kts | 277° |
| 2026-05-07 09:24 | 40.92314 | 28.87614 | 3995 ft | 223 kts | 277° |
| 2026-05-07 09:24 | 40.92489 | 28.85585 | 3991 ft | 223 kts | 277° |
| 2026-05-07 09:25 | 40.92664 | 28.83561 | 3991 ft | 224 kts | 277° |
| 2026-05-07 09:25 | 40.92844 | 28.81495 | 3988 ft | 224 kts | 278° |
| 2026-05-07 09:25 | 40.93322 | 28.79583 | 3963 ft | 225 kts | 307° |
| 2026-05-07 09:25 | 40.94545 | 28.78291 | 3994 ft | 227 kts | 329° |
| 2026-05-07 09:26 | 40.95930 | 28.77267 | 3992 ft | 227 kts | 329° |
| 2026-05-07 09:26 | 40.97351 | 28.76370 | 3971 ft | 221 kts | 343° |
| 2026-05-07 09:26 | 40.98872 | 28.76127 | 3984 ft | 221 kts | 356° |
| 2026-05-07 09:26 | 41.00414 | 28.76104 | 3985 ft | 221 kts | 358° |
| 2026-05-07 09:27 | 41.01969 | 28.76106 | 3988 ft | 221 kts | 358° |
| 2026-05-07 09:27 | 41.03504 | 28.76101 | 3984 ft | 218 kts | 357° |
| 2026-05-07 09:27 | 41.06411 | 28.76063 | 3973 ft | 205 kts | 356° |
| 2026-05-07 09:28 | 41.07846 | 28.76034 | 3900 ft | 204 kts | 356° |
| 2026-05-07 09:28 | 41.09277 | 28.76004 | 3633 ft | 205 kts | 357° |
| 2026-05-07 09:28 | 41.10696 | 28.75975 | 3334 ft | 201 kts | 356° |
| 2026-05-07 09:28 | 41.12066 | 28.75948 | 3043 ft | 192 kts | 357° |
| 2026-05-07 09:29 | 41.13370 | 28.75922 | 2779 ft | 183 kts | 357° |
| 2026-05-07 09:29 | 41.14616 | 28.75898 | 2556 ft | 170 kts | 357° |
| 2026-05-07 09:29 | 41.15783 | 28.75874 | 2344 ft | 166 kts | 357° |
| 2026-05-07 09:29 | 41.16937 | 28.75850 | 2134 ft | 166 kts | 358° |
| 2026-05-07 09:30 | 41.18073 | 28.75828 | 1914 ft | 161 kts | 358° |
| 2026-05-07 09:30 | 41.19141 | 28.75808 | 1692 ft | 146 kts | 358° |
| 2026-05-07 09:30 | 41.20105 | 28.75790 | 1495 ft | 135 kts | 358° |
| 2026-05-07 09:30 | 41.21057 | 28.75768 | 1336 ft | 136 kts | 358° |
| 2026-05-07 09:31 | 41.22002 | 28.75748 | 1166 ft | 136 kts | 358° |
| 2026-05-07 09:31 | 41.22948 | 28.75725 | 981 ft | 135 kts | 358° |
| 2026-05-07 09:31 | 41.23893 | 28.75715 | 802 ft | 135 kts | 359° |
| 2026-05-07 09:31 | 41.24824 | 28.75696 | 636 ft | 134 kts | 358° |
| 2026-05-07 09:32 | 41.25766 | 28.75684 | 456 ft | 134 kts | 359° |
| 2026-05-07 09:32 | 41.26689 | 28.75658 | 334 ft | 128 kts | 0° |
| 2026-05-07 09:32 | 41.27438 | 28.75648 | 333 ft | 83 kts | 359° |
| 2026-05-07 09:32 | 41.27846 | 28.75641 | 333 ft | 37 kts | 359° |
| 2026-05-07 09:33 | 41.28031 | 28.75580 | 333 ft | 22 kts | 335° |
| 2026-05-07 09:33 | 41.28153 | 28.75472 | 333 ft | 17 kts | 308° |
| 2026-05-07 09:33 | 41.28118 | 28.75352 | 333 ft | 16 kts | 191° |
| 2026-05-07 09:33 | 41.28002 | 28.75351 | 333 ft | 16 kts | 179° |
| 2026-05-07 09:34 | 41.27885 | 28.75355 | 333 ft | 17 kts | 179° |
| 2026-05-07 09:34 | 41.27765 | 28.75355 | 333 ft | 17 kts | 180° |
| 2026-05-07 09:34 | 41.27659 | 28.75357 | 333 ft | 12 kts | 179° |
| 2026-05-07 09:34 | 41.27612 | 28.75332 | 333 ft | 7 kts | 256° |
| 2026-05-07 09:35 | 41.27610 | 28.75254 | 333 ft | 9 kts | 269° |
| 2026-05-07 09:35 | 41.27609 | 28.75172 | 333 ft | 4 kts | 269° |
| 2026-05-07 09:35 | 41.27602 | 28.75138 | 333 ft | 4 kts | 219° |
| 2026-05-07 09:35 | 41.27573 | 28.75135 | 333 ft | 3 kts | 180° |
| 2026-05-07 09:36 | 41.27556 | 28.75135 | 333 ft | 1 kts | 179° |
| 2026-05-07 09:36 | 41.27555 | 28.75135 | 333 ft | 0 kts | 179° |